sensor_id;sensor_type;location;lat;lon;timestamp;P1;durP1;ratioP1;P2;durP2;ratioP2
1799;SDS011;919;48.274;12.292;2023-10-31T00:02:28;8.90;;;5.70;;
1799;SDS011;919;48.274;12.292;2023-10-31T00:04:56;5.30;;;4.80;;
1799;SDS011;919;48.274;12.292;2023-10-31T00:07:23;5.10;;;4.60;;
1799;SDS011;919;48.274;12.292;2023-10-31T00:09:49;4.07;;;3.77;;
1799;SDS011;919;48.274;12.292;2023-10-31T00:12:16;4.53;;;4.10;;
1799;SDS011;919;48.274;12.292;2023-10-31T00:14:43;7.70;;;4.60;;
1799;SDS011;919;48.274;12.292;2023-10-31T00:17:09;4.27;;;3.87;;
1799;SDS011;919;48.274;12.292;2023-10-31T00:19:36;3.70;;;3.40;;
1799;SDS011;919;48.274;12.292;2023-10-31T00:22:04;4.40;;;3.60;;
1799;SDS011;919;48.274;12.292;2023-10-31T00:24:31;4.43;;;3.30;;
1799;SDS011;919;48.274;12.292;2023-10-31T00:26:58;3.27;;;2.60;;
1799;SDS011;919;48.274;12.292;2023-10-31T00:29:24;2.93;;;2.73;;
1799;SDS011;919;48.274;12.292;2023-10-31T00:31:51;2.43;;;1.83;;
1799;SDS011;919;48.274;12.292;2023-10-31T00:34:18;3.13;;;2.37;;
1799;SDS011;919;48.274;12.292;2023-10-31T00:36:44;2.07;;;1.50;;
1799;SDS011;919;48.274;12.292;2023-10-31T00:39:12;1.97;;;1.77;;
1799;SDS011;919;48.274;12.292;2023-10-31T00:41:40;2.30;;;1.60;;
1799;SDS011;919;48.274;12.292;2023-10-31T00:44:10;1.53;;;1.43;;
1799;SDS011;919;48.274;12.292;2023-10-31T00:46:37;1.97;;;1.60;;
1799;SDS011;919;48.274;12.292;2023-10-31T00:49:04;1.57;;;1.47;;
1799;SDS011;919;48.274;12.292;2023-10-31T00:51:30;1.47;;;1.30;;
1799;SDS011;919;48.274;12.292;2023-10-31T00:53:57;1.43;;;1.33;;
1799;SDS011;919;48.274;12.292;2023-10-31T00:56:25;0.93;;;0.90;;
1799;SDS011;919;48.274;12.292;2023-10-31T00:58:52;0.80;;;0.80;;
1799;SDS011;919;48.274;12.292;2023-10-31T01:01:19;0.77;;;0.77;;
1799;SDS011;919;48.274;12.292;2023-10-31T01:03:45;0.90;;;0.90;;
1799;SDS011;919;48.274;12.292;2023-10-31T01:06:12;0.93;;;0.93;;
1799;SDS011;919;48.274;12.292;2023-10-31T01:08:39;0.53;;;0.53;;
1799;SDS011;919;48.274;12.292;2023-10-31T01:11:05;0.60;;;0.60;;
1799;SDS011;919;48.274;12.292;2023-10-31T01:13:33;1.10;;;0.80;;
1799;SDS011;919;48.274;12.292;2023-10-31T01:16:00;0.70;;;0.70;;
1799;SDS011;919;48.274;12.292;2023-10-31T01:18:27;1.60;;;0.60;;
1799;SDS011;919;48.274;12.292;2023-10-31T01:20:54;0.60;;;0.60;;
1799;SDS011;919;48.274;12.292;2023-10-31T01:23:20;0.40;;;0.40;;
1799;SDS011;919;48.274;12.292;2023-10-31T01:25:47;0.53;;;0.53;;
1799;SDS011;919;48.274;12.292;2023-10-31T01:28:14;0.50;;;0.40;;
1799;SDS011;919;48.274;12.292;2023-10-31T01:30:42;1.93;;;0.50;;
1799;SDS011;919;48.274;12.292;2023-10-31T01:33:09;0.47;;;0.47;;
1799;SDS011;919;48.274;12.292;2023-10-31T01:35:36;1.33;;;0.40;;
1799;SDS011;919;48.274;12.292;2023-10-31T01:38:02;0.50;;;0.50;;
1799;SDS011;919;48.274;12.292;2023-10-31T01:40:29;0.40;;;0.40;;
1799;SDS011;919;48.274;12.292;2023-10-31T01:42:56;0.40;;;0.40;;
1799;SDS011;919;48.274;12.292;2023-10-31T01:45:22;0.50;;;0.50;;
1799;SDS011;919;48.274;12.292;2023-10-31T01:47:50;0.80;;;0.50;;
1799;SDS011;919;48.274;12.292;2023-10-31T01:50:17;0.60;;;0.40;;
1799;SDS011;919;48.274;12.292;2023-10-31T01:52:44;0.90;;;0.40;;
1799;SDS011;919;48.274;12.292;2023-10-31T01:55:12;1.47;;;0.40;;
1799;SDS011;919;48.274;12.292;2023-10-31T01:57:39;0.93;;;0.30;;
1799;SDS011;919;48.274;12.292;2023-10-31T02:00:06;0.50;;;0.50;;
1799;SDS011;919;48.274;12.292;2023-10-31T02:02:34;0.80;;;0.60;;
1799;SDS011;919;48.274;12.292;2023-10-31T02:11:48;0.30;;;0.30;;
1799;SDS011;919;48.274;12.292;2023-10-31T02:14:15;2.17;;;0.53;;
1799;SDS011;919;48.274;12.292;2023-10-31T02:16:42;1.20;;;0.50;;
1799;SDS011;919;48.274;12.292;2023-10-31T02:19:08;0.47;;;0.37;;
1799;SDS011;919;48.274;12.292;2023-10-31T02:21:39;0.67;;;0.40;;
1799;SDS011;919;48.274;12.292;2023-10-31T02:24:06;1.73;;;0.40;;
1799;SDS011;919;48.274;12.292;2023-10-31T02:26:34;0.40;;;0.40;;
1799;SDS011;919;48.274;12.292;2023-10-31T02:29:01;0.60;;;0.40;;
1799;SDS011;919;48.274;12.292;2023-10-31T02:31:28;0.40;;;0.40;;
1799;SDS011;919;48.274;12.292;2023-10-31T02:33:55;0.40;;;0.40;;
1799;SDS011;919;48.274;12.292;2023-10-31T02:36:22;0.30;;;0.30;;
1799;SDS011;919;48.274;12.292;2023-10-31T02:38:50;2.47;;;0.53;;
1799;SDS011;919;48.274;12.292;2023-10-31T02:41:17;0.40;;;0.30;;
1799;SDS011;919;48.274;12.292;2023-10-31T02:43:43;0.40;;;0.40;;
1799;SDS011;919;48.274;12.292;2023-10-31T02:46:10;1.03;;;0.40;;
1799;SDS011;919;48.274;12.292;2023-10-31T02:48:39;0.40;;;0.30;;
1799;SDS011;919;48.274;12.292;2023-10-31T02:51:07;0.40;;;0.40;;
1799;SDS011;919;48.274;12.292;2023-10-31T02:53:34;0.40;;;0.40;;
1799;SDS011;919;48.274;12.292;2023-10-31T02:56:03;0.30;;;0.30;;
1799;SDS011;919;48.274;12.292;2023-10-31T02:58:29;0.40;;;0.30;;
1799;SDS011;919;48.274;12.292;2023-10-31T03:00:56;0.40;;;0.30;;
1799;SDS011;919;48.274;12.292;2023-10-31T03:03:23;0.30;;;0.30;;
1799;SDS011;919;48.274;12.292;2023-10-31T03:05:49;1.60;;;0.30;;
1799;SDS011;919;48.274;12.292;2023-10-31T03:08:16;0.50;;;0.30;;
1799;SDS011;919;48.274;12.292;2023-10-31T03:10:45;0.40;;;0.40;;
1799;SDS011;919;48.274;12.292;2023-10-31T03:13:16;0.30;;;0.20;;
1799;SDS011;919;48.274;12.292;2023-10-31T03:15:43;1.83;;;0.30;;
1799;SDS011;919;48.274;12.292;2023-10-31T03:18:09;0.40;;;0.30;;
1799;SDS011;919;48.274;12.292;2023-10-31T03:20:36;0.40;;;0.30;;
1799;SDS011;919;48.274;12.292;2023-10-31T03:23:03;0.63;;;0.50;;
1799;SDS011;919;48.274;12.292;2023-10-31T03:25:29;0.30;;;0.30;;
1799;SDS011;919;48.274;12.292;2023-10-31T03:27:56;0.30;;;0.30;;
1799;SDS011;919;48.274;12.292;2023-10-31T03:30:24;0.50;;;0.30;;
1799;SDS011;919;48.274;12.292;2023-10-31T03:32:51;0.40;;;0.27;;
1799;SDS011;919;48.274;12.292;2023-10-31T03:35:18;0.30;;;0.20;;
1799;SDS011;919;48.274;12.292;2023-10-31T03:37:44;1.17;;;0.30;;
1799;SDS011;919;48.274;12.292;2023-10-31T03:40:11;0.30;;;0.27;;
1799;SDS011;919;48.274;12.292;2023-10-31T03:42:38;0.40;;;0.30;;
1799;SDS011;919;48.274;12.292;2023-10-31T03:45:05;0.30;;;0.27;;
1799;SDS011;919;48.274;12.292;2023-10-31T03:47:34;0.40;;;0.27;;
1799;SDS011;919;48.274;12.292;2023-10-31T03:50:01;0.30;;;0.30;;
1799;SDS011;919;48.274;12.292;2023-10-31T03:52:28;0.30;;;0.30;;
1799;SDS011;919;48.274;12.292;2023-10-31T03:54:55;0.40;;;0.40;;
1799;SDS011;919;48.274;12.292;2023-10-31T03:57:21;0.30;;;0.30;;
1799;SDS011;919;48.274;12.292;2023-10-31T03:59:48;0.30;;;0.30;;
1799;SDS011;919;48.274;12.292;2023-10-31T04:02:15;0.30;;;0.30;;
1799;SDS011;919;48.274;12.292;2023-10-31T04:04:43;0.80;;;0.40;;
1799;SDS011;919;48.274;12.292;2023-10-31T04:07:09;0.30;;;0.20;;
1799;SDS011;919;48.274;12.292;2023-10-31T04:09:54;0.30;;;0.30;;
1799;SDS011;919;48.274;12.292;2023-10-31T04:12:21;0.57;;;0.40;;
1799;SDS011;919;48.274;12.292;2023-10-31T04:14:48;2.30;;;0.50;;
1799;SDS011;919;48.274;12.292;2023-10-31T04:17:15;0.30;;;0.30;;
1799;SDS011;919;48.274;12.292;2023-10-31T04:19:43;0.30;;;0.30;;
1799;SDS011;919;48.274;12.292;2023-10-31T04:22:10;1.40;;;0.40;;
1799;SDS011;919;48.274;12.292;2023-10-31T04:24:36;0.30;;;0.30;;
1799;SDS011;919;48.274;12.292;2023-10-31T04:27:03;0.40;;;0.30;;
1799;SDS011;919;48.274;12.292;2023-10-31T04:29:30;0.30;;;0.20;;
1799;SDS011;919;48.274;12.292;2023-10-31T04:31:57;0.63;;;0.43;;
1799;SDS011;919;48.274;12.292;2023-10-31T04:34:23;0.50;;;0.30;;
1799;SDS011;919;48.274;12.292;2023-10-31T04:36:52;0.30;;;0.20;;
1799;SDS011;919;48.274;12.292;2023-10-31T04:39:18;0.30;;;0.20;;
1799;SDS011;919;48.274;12.292;2023-10-31T04:41:45;1.57;;;0.33;;
1799;SDS011;919;48.274;12.292;2023-10-31T04:44:12;0.43;;;0.30;;
1799;SDS011;919;48.274;12.292;2023-10-31T04:46:39;1.53;;;0.30;;
1799;SDS011;919;48.274;12.292;2023-10-31T04:49:05;0.40;;;0.30;;
1799;SDS011;919;48.274;12.292;2023-10-31T04:51:33;0.40;;;0.37;;
1799;SDS011;919;48.274;12.292;2023-10-31T04:54:01;0.67;;;0.30;;
1799;SDS011;919;48.274;12.292;2023-10-31T04:56:28;0.40;;;0.40;;
1799;SDS011;919;48.274;12.292;2023-10-31T04:58:54;0.30;;;0.30;;
1799;SDS011;919;48.274;12.292;2023-10-31T05:01:21;0.30;;;0.30;;
1799;SDS011;919;48.274;12.292;2023-10-31T05:03:49;0.50;;;0.40;;
1799;SDS011;919;48.274;12.292;2023-10-31T05:06:18;0.63;;;0.40;;
1799;SDS011;919;48.274;12.292;2023-10-31T05:08:45;0.63;;;0.57;;
1799;SDS011;919;48.274;12.292;2023-10-31T05:11:14;0.40;;;0.33;;
1799;SDS011;919;48.274;12.292;2023-10-31T05:13:42;0.40;;;0.40;;
1799;SDS011;919;48.274;12.292;2023-10-31T05:16:09;0.43;;;0.40;;
1799;SDS011;919;48.274;12.292;2023-10-31T05:18:37;0.50;;;0.40;;
1799;SDS011;919;48.274;12.292;2023-10-31T05:21:04;0.60;;;0.40;;
1799;SDS011;919;48.274;12.292;2023-10-31T05:23:31;0.43;;;0.43;;
1799;SDS011;919;48.274;12.292;2023-10-31T05:25:58;0.50;;;0.40;;
1799;SDS011;919;48.274;12.292;2023-10-31T05:28:26;1.37;;;0.40;;
1799;SDS011;919;48.274;12.292;2023-10-31T05:30:52;0.40;;;0.30;;
1799;SDS011;919;48.274;12.292;2023-10-31T05:33:19;0.80;;;0.30;;
1799;SDS011;919;48.274;12.292;2023-10-31T05:35:46;0.33;;;0.33;;
1799;SDS011;919;48.274;12.292;2023-10-31T05:38:13;0.53;;;0.53;;
1799;SDS011;919;48.274;12.292;2023-10-31T05:40:39;0.53;;;0.50;;
1799;SDS011;919;48.274;12.292;2023-10-31T05:43:06;0.47;;;0.47;;
1799;SDS011;919;48.274;12.292;2023-10-31T05:45:34;0.40;;;0.40;;
1799;SDS011;919;48.274;12.292;2023-10-31T05:48:01;0.80;;;0.80;;
1799;SDS011;919;48.274;12.292;2023-10-31T05:50:28;1.70;;;1.33;;
1799;SDS011;919;48.274;12.292;2023-10-31T05:52:55;1.27;;;1.20;;
1799;SDS011;919;48.274;12.292;2023-10-31T05:55:22;0.90;;;0.90;;
1799;SDS011;919;48.274;12.292;2023-10-31T05:57:49;1.07;;;0.70;;
1799;SDS011;919;48.274;12.292;2023-10-31T06:00:16;0.73;;;0.70;;
1799;SDS011;919;48.274;12.292;2023-10-31T06:02:44;0.47;;;0.40;;
1799;SDS011;919;48.274;12.292;2023-10-31T06:05:11;0.50;;;0.50;;
1799;SDS011;919;48.274;12.292;2023-10-31T06:07:38;0.40;;;0.40;;
1799;SDS011;919;48.274;12.292;2023-10-31T06:10:05;0.60;;;0.50;;
1799;SDS011;919;48.274;12.292;2023-10-31T06:12:33;0.70;;;0.70;;
1799;SDS011;919;48.274;12.292;2023-10-31T06:14:59;1.07;;;0.87;;
1799;SDS011;919;48.274;12.292;2023-10-31T06:17:26;0.70;;;0.50;;
1799;SDS011;919;48.274;12.292;2023-10-31T06:19:54;1.13;;;0.63;;
1799;SDS011;919;48.274;12.292;2023-10-31T06:22:21;4.10;;;0.90;;
1799;SDS011;919;48.274;12.292;2023-10-31T06:24:48;0.97;;;0.90;;
1799;SDS011;919;48.274;12.292;2023-10-31T06:27:14;0.70;;;0.60;;
1799;SDS011;919;48.274;12.292;2023-10-31T06:29:41;0.77;;;0.70;;
1799;SDS011;919;48.274;12.292;2023-10-31T06:32:08;0.70;;;0.70;;
1799;SDS011;919;48.274;12.292;2023-10-31T06:34:34;0.73;;;0.60;;
1799;SDS011;919;48.274;12.292;2023-10-31T06:37:03;1.00;;;0.77;;
1799;SDS011;919;48.274;12.292;2023-10-31T06:39:30;0.77;;;0.77;;
1799;SDS011;919;48.274;12.292;2023-10-31T06:41:57;1.17;;;1.00;;
1799;SDS011;919;48.274;12.292;2023-10-31T06:44:24;0.70;;;0.70;;
1799;SDS011;919;48.274;12.292;2023-10-31T06:46:51;0.60;;;0.60;;
1799;SDS011;919;48.274;12.292;2023-10-31T06:49:18;1.67;;;0.60;;
1799;SDS011;919;48.274;12.292;2023-10-31T06:51:45;1.17;;;0.77;;
1799;SDS011;919;48.274;12.292;2023-10-31T06:54:13;1.43;;;0.60;;
1799;SDS011;919;48.274;12.292;2023-10-31T06:56:40;0.70;;;0.70;;
1799;SDS011;919;48.274;12.292;2023-10-31T06:59:07;1.00;;;0.70;;
1799;SDS011;919;48.274;12.292;2023-10-31T07:01:35;1.07;;;0.80;;
1799;SDS011;919;48.274;12.292;2023-10-31T07:04:03;0.67;;;0.63;;
1799;SDS011;919;48.274;12.292;2023-10-31T07:06:30;1.03;;;0.60;;
1799;SDS011;919;48.274;12.292;2023-10-31T07:08:56;0.87;;;0.83;;
1799;SDS011;919;48.274;12.292;2023-10-31T07:11:26;0.93;;;0.57;;
1799;SDS011;919;48.274;12.292;2023-10-31T07:13:57;1.03;;;0.60;;
1799;SDS011;919;48.274;12.292;2023-10-31T07:16:24;0.80;;;0.70;;
1799;SDS011;919;48.274;12.292;2023-10-31T07:18:50;0.77;;;0.77;;
1799;SDS011;919;48.274;12.292;2023-10-31T07:21:17;1.10;;;0.97;;
1799;SDS011;919;48.274;12.292;2023-10-31T07:23:44;1.63;;;0.70;;
1799;SDS011;919;48.274;12.292;2023-10-31T07:26:10;1.67;;;0.87;;
1799;SDS011;919;48.274;12.292;2023-10-31T07:28:38;1.63;;;1.00;;
1799;SDS011;919;48.274;12.292;2023-10-31T07:31:05;1.87;;;0.77;;
1799;SDS011;919;48.274;12.292;2023-10-31T07:33:32;0.70;;;0.70;;
1799;SDS011;919;48.274;12.292;2023-10-31T07:35:59;1.60;;;1.20;;
1799;SDS011;919;48.274;12.292;2023-10-31T07:38:25;0.93;;;0.73;;
1799;SDS011;919;48.274;12.292;2023-10-31T07:40:52;0.70;;;0.70;;
1799;SDS011;919;48.274;12.292;2023-10-31T07:43:19;1.00;;;0.90;;
1799;SDS011;919;48.274;12.292;2023-10-31T07:45:48;0.73;;;0.73;;
1799;SDS011;919;48.274;12.292;2023-10-31T07:48:15;1.67;;;0.97;;
1799;SDS011;919;48.274;12.292;2023-10-31T07:50:42;1.00;;;0.67;;
1799;SDS011;919;48.274;12.292;2023-10-31T07:53:12;0.90;;;0.73;;
1799;SDS011;919;48.274;12.292;2023-10-31T07:55:40;1.00;;;0.80;;
1799;SDS011;919;48.274;12.292;2023-10-31T07:58:09;1.80;;;0.87;;
1799;SDS011;919;48.274;12.292;2023-10-31T08:00:36;1.50;;;0.70;;
1799;SDS011;919;48.274;12.292;2023-10-31T08:03:05;3.50;;;0.90;;
1799;SDS011;919;48.274;12.292;2023-10-31T08:05:32;0.83;;;0.83;;
1799;SDS011;919;48.274;12.292;2023-10-31T08:07:59;0.73;;;0.70;;
1799;SDS011;919;48.274;12.292;2023-10-31T08:10:25;1.17;;;0.87;;
1799;SDS011;919;48.274;12.292;2023-10-31T08:12:52;1.37;;;1.10;;
1799;SDS011;919;48.274;12.292;2023-10-31T08:15:19;2.00;;;0.90;;
1799;SDS011;919;48.274;12.292;2023-10-31T08:17:46;2.03;;;0.80;;
1799;SDS011;919;48.274;12.292;2023-10-31T08:20:14;1.13;;;0.87;;
1799;SDS011;919;48.274;12.292;2023-10-31T08:22:41;1.80;;;0.70;;
1799;SDS011;919;48.274;12.292;2023-10-31T08:25:08;1.00;;;0.63;;
1799;SDS011;919;48.274;12.292;2023-10-31T08:27:35;2.00;;;0.83;;
1799;SDS011;919;48.274;12.292;2023-10-31T08:30:02;0.80;;;0.77;;
1799;SDS011;919;48.274;12.292;2023-10-31T08:32:29;0.83;;;0.80;;
1799;SDS011;919;48.274;12.292;2023-10-31T08:34:56;0.83;;;0.83;;
1799;SDS011;919;48.274;12.292;2023-10-31T08:37:24;0.73;;;0.70;;
1799;SDS011;919;48.274;12.292;2023-10-31T08:39:51;1.27;;;1.00;;
1799;SDS011;919;48.274;12.292;2023-10-31T08:42:17;0.83;;;0.83;;
1799;SDS011;919;48.274;12.292;2023-10-31T08:44:45;1.93;;;0.80;;
1799;SDS011;919;48.274;12.292;2023-10-31T08:47:11;1.33;;;1.00;;
1799;SDS011;919;48.274;12.292;2023-10-31T08:49:38;1.03;;;1.00;;
1799;SDS011;919;48.274;12.292;2023-10-31T08:52:06;1.20;;;0.70;;
1799;SDS011;919;48.274;12.292;2023-10-31T08:54:34;1.07;;;0.83;;
1799;SDS011;919;48.274;12.292;2023-10-31T08:57:00;2.10;;;0.90;;
1799;SDS011;919;48.274;12.292;2023-10-31T08:59:27;1.10;;;1.00;;
1799;SDS011;919;48.274;12.292;2023-10-31T09:01:54;0.67;;;0.67;;
1799;SDS011;919;48.274;12.292;2023-10-31T09:04:21;0.97;;;0.80;;
1799;SDS011;919;48.274;12.292;2023-10-31T09:06:48;1.07;;;0.97;;
1799;SDS011;919;48.274;12.292;2023-10-31T09:09:15;4.40;;;1.10;;
1799;SDS011;919;48.274;12.292;2023-10-31T09:11:43;1.03;;;0.77;;
1799;SDS011;919;48.274;12.292;2023-10-31T09:14:09;2.20;;;1.00;;
1799;SDS011;919;48.274;12.292;2023-10-31T09:16:36;1.90;;;1.20;;
1799;SDS011;919;48.274;12.292;2023-10-31T09:19:03;1.23;;;0.90;;
1799;SDS011;919;48.274;12.292;2023-10-31T09:21:30;1.43;;;0.90;;
1799;SDS011;919;48.274;12.292;2023-10-31T09:23:57;1.47;;;1.10;;
1799;SDS011;919;48.274;12.292;2023-10-31T09:26:23;1.00;;;0.83;;
1799;SDS011;919;48.274;12.292;2023-10-31T09:28:51;1.40;;;1.30;;
1799;SDS011;919;48.274;12.292;2023-10-31T09:31:18;1.67;;;1.40;;
1799;SDS011;919;48.274;12.292;2023-10-31T09:33:45;2.10;;;1.10;;
1799;SDS011;919;48.274;12.292;2023-10-31T09:36:13;1.13;;;0.90;;
1799;SDS011;919;48.274;12.292;2023-10-31T09:38:40;2.10;;;1.20;;
1799;SDS011;919;48.274;12.292;2023-10-31T09:41:07;1.67;;;1.00;;
1799;SDS011;919;48.274;12.292;2023-10-31T09:43:34;1.10;;;1.00;;
1799;SDS011;919;48.274;12.292;2023-10-31T09:46:02;2.27;;;0.97;;
1799;SDS011;919;48.274;12.292;2023-10-31T09:48:29;2.77;;;1.60;;
1799;SDS011;919;48.274;12.292;2023-10-31T09:50:57;1.37;;;0.90;;
1799;SDS011;919;48.274;12.292;2023-10-31T09:53:24;0.73;;;0.73;;
1799;SDS011;919;48.274;12.292;2023-10-31T09:55:53;1.43;;;0.90;;
1799;SDS011;919;48.274;12.292;2023-10-31T09:58:21;0.70;;;0.70;;
1799;SDS011;919;48.274;12.292;2023-10-31T10:00:48;1.97;;;1.03;;
1799;SDS011;919;48.274;12.292;2023-10-31T10:03:16;0.67;;;0.67;;
1799;SDS011;919;48.274;12.292;2023-10-31T10:05:44;0.90;;;0.90;;
1799;SDS011;919;48.274;12.292;2023-10-31T10:08:11;0.90;;;0.90;;
1799;SDS011;919;48.274;12.292;2023-10-31T10:10:38;1.77;;;1.27;;
1799;SDS011;919;48.274;12.292;2023-10-31T10:13:05;1.73;;;0.80;;
1799;SDS011;919;48.274;12.292;2023-10-31T10:15:42;1.07;;;0.97;;
1799;SDS011;919;48.274;12.292;2023-10-31T10:18:09;1.10;;;1.00;;
1799;SDS011;919;48.274;12.292;2023-10-31T10:20:38;2.37;;;1.00;;
1799;SDS011;919;48.274;12.292;2023-10-31T10:23:21;1.10;;;1.00;;
1799;SDS011;919;48.274;12.292;2023-10-31T10:25:48;1.83;;;1.43;;
1799;SDS011;919;48.274;12.292;2023-10-31T10:28:15;2.40;;;1.37;;
1799;SDS011;919;48.274;12.292;2023-10-31T10:30:44;1.33;;;1.23;;
1799;SDS011;919;48.274;12.292;2023-10-31T10:33:11;2.70;;;1.20;;
1799;SDS011;919;48.274;12.292;2023-10-31T10:35:39;1.43;;;0.97;;
1799;SDS011;919;48.274;12.292;2023-10-31T10:38:06;1.87;;;1.07;;
1799;SDS011;919;48.274;12.292;2023-10-31T10:40:38;1.30;;;1.07;;
1799;SDS011;919;48.274;12.292;2023-10-31T10:43:07;1.50;;;1.37;;
1799;SDS011;919;48.274;12.292;2023-10-31T10:45:39;1.10;;;0.90;;
1799;SDS011;919;48.274;12.292;2023-10-31T10:48:10;1.37;;;1.00;;
1799;SDS011;919;48.274;12.292;2023-10-31T10:50:41;1.63;;;1.53;;
1799;SDS011;919;48.274;12.292;2023-10-31T10:53:12;1.20;;;1.00;;
1799;SDS011;919;48.274;12.292;2023-10-31T10:55:45;1.33;;;1.23;;
1799;SDS011;919;48.274;12.292;2023-10-31T10:58:18;2.30;;;1.07;;
1799;SDS011;919;48.274;12.292;2023-10-31T11:00:48;2.30;;;1.07;;
1799;SDS011;919;48.274;12.292;2023-10-31T11:03:16;1.33;;;0.90;;
1799;SDS011;919;48.274;12.292;2023-10-31T11:05:46;4.10;;;1.13;;
1799;SDS011;919;48.274;12.292;2023-10-31T11:08:14;1.90;;;1.30;;
1799;SDS011;919;48.274;12.292;2023-10-31T11:10:42;4.83;;;1.00;;
1799;SDS011;919;48.274;12.292;2023-10-31T11:13:11;2.60;;;1.10;;
1799;SDS011;919;48.274;12.292;2023-10-31T11:15:38;1.67;;;0.87;;
1799;SDS011;919;48.274;12.292;2023-10-31T11:18:06;1.43;;;1.17;;
1799;SDS011;919;48.274;12.292;2023-10-31T11:20:33;2.60;;;1.00;;
1799;SDS011;919;48.274;12.292;2023-10-31T11:23:01;1.17;;;1.07;;
1799;SDS011;919;48.274;12.292;2023-10-31T11:25:31;1.67;;;0.80;;
1799;SDS011;919;48.274;12.292;2023-10-31T11:28:11;3.60;;;1.00;;
1799;SDS011;919;48.274;12.292;2023-10-31T11:30:38;3.40;;;1.20;;
1799;SDS011;919;48.274;12.292;2023-10-31T11:33:07;1.33;;;0.87;;
1799;SDS011;919;48.274;12.292;2023-10-31T11:35:38;1.07;;;0.90;;
1799;SDS011;919;48.274;12.292;2023-10-31T11:38:07;2.80;;;1.10;;
1799;SDS011;919;48.274;12.292;2023-10-31T11:40:36;1.33;;;1.17;;
1799;SDS011;919;48.274;12.292;2023-10-31T11:43:04;0.90;;;0.90;;
1799;SDS011;919;48.274;12.292;2023-10-31T11:45:34;1.30;;;1.20;;
1799;SDS011;919;48.274;12.292;2023-10-31T11:48:02;1.67;;;1.43;;
1799;SDS011;919;48.274;12.292;2023-10-31T11:50:30;2.33;;;0.97;;
1799;SDS011;919;48.274;12.292;2023-10-31T11:53:04;1.30;;;0.87;;
1799;SDS011;919;48.274;12.292;2023-10-31T11:55:34;1.50;;;1.33;;
1799;SDS011;919;48.274;12.292;2023-10-31T11:58:12;1.20;;;0.80;;
1799;SDS011;919;48.274;12.292;2023-10-31T12:00:42;0.77;;;0.77;;
1799;SDS011;919;48.274;12.292;2023-10-31T12:03:10;2.53;;;1.03;;
1799;SDS011;919;48.274;12.292;2023-10-31T12:05:37;2.57;;;1.07;;
1799;SDS011;919;48.274;12.292;2023-10-31T12:08:04;0.70;;;0.70;;
1799;SDS011;919;48.274;12.292;2023-10-31T12:10:31;4.00;;;1.00;;
1799;SDS011;919;48.274;12.292;2023-10-31T12:12:59;0.97;;;0.90;;
1799;SDS011;919;48.274;12.292;2023-10-31T12:15:26;1.20;;;0.80;;
1799;SDS011;919;48.274;12.292;2023-10-31T12:17:57;1.57;;;1.10;;
1799;SDS011;919;48.274;12.292;2023-10-31T12:20:24;0.87;;;0.70;;
1799;SDS011;919;48.274;12.292;2023-10-31T12:23:01;3.30;;;0.80;;
1799;SDS011;919;48.274;12.292;2023-10-31T12:25:29;1.17;;;1.00;;
1799;SDS011;919;48.274;12.292;2023-10-31T12:28:01;2.00;;;0.90;;
1799;SDS011;919;48.274;12.292;2023-10-31T12:30:28;1.13;;;0.73;;
1799;SDS011;919;48.274;12.292;2023-10-31T12:32:55;3.27;;;1.17;;
1799;SDS011;919;48.274;12.292;2023-10-31T12:35:23;1.53;;;1.20;;
1799;SDS011;919;48.274;12.292;2023-10-31T12:37:52;2.10;;;1.23;;
1799;SDS011;919;48.274;12.292;2023-10-31T12:40:19;1.47;;;0.97;;
1799;SDS011;919;48.274;12.292;2023-10-31T12:42:48;1.43;;;1.33;;
1799;SDS011;919;48.274;12.292;2023-10-31T12:45:17;1.73;;;0.80;;
1799;SDS011;919;48.274;12.292;2023-10-31T12:47:44;4.00;;;1.17;;
1799;SDS011;919;48.274;12.292;2023-10-31T12:50:25;2.30;;;0.80;;
1799;SDS011;919;48.274;12.292;2023-10-31T12:52:52;3.43;;;1.20;;
1799;SDS011;919;48.274;12.292;2023-10-31T12:55:20;1.90;;;1.23;;
1799;SDS011;919;48.274;12.292;2023-10-31T12:57:48;3.73;;;1.20;;
1799;SDS011;919;48.274;12.292;2023-10-31T13:00:18;1.00;;;0.90;;
1799;SDS011;919;48.274;12.292;2023-10-31T13:02:49;2.20;;;1.10;;
1799;SDS011;919;48.274;12.292;2023-10-31T13:05:17;1.23;;;1.10;;
1799;SDS011;919;48.274;12.292;2023-10-31T13:07:47;2.73;;;1.10;;
1799;SDS011;919;48.274;12.292;2023-10-31T13:10:16;4.57;;;2.10;;
1799;SDS011;919;48.274;12.292;2023-10-31T13:12:43;2.07;;;0.87;;
1799;SDS011;919;48.274;12.292;2023-10-31T13:15:11;1.90;;;0.90;;
1799;SDS011;919;48.274;12.292;2023-10-31T13:17:40;2.50;;;1.17;;
1799;SDS011;919;48.274;12.292;2023-10-31T13:20:08;2.60;;;0.83;;
1799;SDS011;919;48.274;12.292;2023-10-31T13:22:36;1.17;;;0.90;;
1799;SDS011;919;48.274;12.292;2023-10-31T13:25:03;1.30;;;0.90;;
1799;SDS011;919;48.274;12.292;2023-10-31T13:27:31;2.57;;;1.10;;
1799;SDS011;919;48.274;12.292;2023-10-31T13:29:58;1.57;;;0.90;;
1799;SDS011;919;48.274;12.292;2023-10-31T13:32:24;3.07;;;1.20;;
1799;SDS011;919;48.274;12.292;2023-10-31T13:34:52;1.57;;;1.00;;
1799;SDS011;919;48.274;12.292;2023-10-31T13:37:19;1.27;;;1.10;;
1799;SDS011;919;48.274;12.292;2023-10-31T13:39:46;1.50;;;1.10;;
1799;SDS011;919;48.274;12.292;2023-10-31T13:42:12;1.40;;;1.10;;
1799;SDS011;919;48.274;12.292;2023-10-31T13:44:40;5.50;;;1.53;;
1799;SDS011;919;48.274;12.292;2023-10-31T13:47:06;1.90;;;1.03;;
1799;SDS011;919;48.274;12.292;2023-10-31T13:49:34;3.40;;;1.10;;
1799;SDS011;919;48.274;12.292;2023-10-31T13:52:03;2.40;;;1.17;;
1799;SDS011;919;48.274;12.292;2023-10-31T13:54:31;1.63;;;0.97;;
1799;SDS011;919;48.274;12.292;2023-10-31T13:56:57;2.63;;;0.90;;
1799;SDS011;919;48.274;12.292;2023-10-31T13:59:24;0.67;;;0.67;;
1799;SDS011;919;48.274;12.292;2023-10-31T14:01:51;1.67;;;0.90;;
1799;SDS011;919;48.274;12.292;2023-10-31T14:04:18;1.23;;;0.87;;
1799;SDS011;919;48.274;12.292;2023-10-31T14:06:45;1.40;;;1.30;;
1799;SDS011;919;48.274;12.292;2023-10-31T14:09:14;2.57;;;0.80;;
1799;SDS011;919;48.274;12.292;2023-10-31T14:11:41;1.70;;;1.00;;
1799;SDS011;919;48.274;12.292;2023-10-31T14:14:08;1.77;;;1.00;;
1799;SDS011;919;48.274;12.292;2023-10-31T14:16:35;4.60;;;1.37;;
1799;SDS011;919;48.274;12.292;2023-10-31T14:19:03;1.00;;;0.90;;
1799;SDS011;919;48.274;12.292;2023-10-31T14:21:32;2.07;;;1.10;;
1799;SDS011;919;48.274;12.292;2023-10-31T14:23:58;3.23;;;1.23;;
1799;SDS011;919;48.274;12.292;2023-10-31T14:26:26;1.77;;;1.30;;
1799;SDS011;919;48.274;12.292;2023-10-31T14:28:54;2.63;;;1.00;;
1799;SDS011;919;48.274;12.292;2023-10-31T14:31:20;1.20;;;1.10;;
1799;SDS011;919;48.274;12.292;2023-10-31T14:33:47;1.40;;;1.30;;
1799;SDS011;919;48.274;12.292;2023-10-31T14:36:15;2.17;;;1.97;;
1799;SDS011;919;48.274;12.292;2023-10-31T14:38:42;1.77;;;1.43;;
1799;SDS011;919;48.274;12.292;2023-10-31T14:41:09;3.23;;;1.67;;
1799;SDS011;919;48.274;12.292;2023-10-31T14:43:37;1.30;;;1.20;;
1799;SDS011;919;48.274;12.292;2023-10-31T14:46:04;1.47;;;1.20;;
1799;SDS011;919;48.274;12.292;2023-10-31T14:48:32;1.03;;;1.03;;
1799;SDS011;919;48.274;12.292;2023-10-31T14:50:59;1.13;;;0.83;;
1799;SDS011;919;48.274;12.292;2023-10-31T14:53:26;1.10;;;0.87;;
1799;SDS011;919;48.274;12.292;2023-10-31T14:55:53;1.10;;;1.00;;
1799;SDS011;919;48.274;12.292;2023-10-31T14:58:21;1.17;;;0.90;;
1799;SDS011;919;48.274;12.292;2023-10-31T15:00:49;0.70;;;0.60;;
1799;SDS011;919;48.274;12.292;2023-10-31T15:03:16;0.80;;;0.70;;
1799;SDS011;919;48.274;12.292;2023-10-31T15:05:44;0.80;;;0.67;;
1799;SDS011;919;48.274;12.292;2023-10-31T15:08:11;0.67;;;0.67;;
1799;SDS011;919;48.274;12.292;2023-10-31T15:10:37;0.70;;;0.70;;
1799;SDS011;919;48.274;12.292;2023-10-31T15:13:04;2.17;;;0.90;;
1799;SDS011;919;48.274;12.292;2023-10-31T15:15:31;0.77;;;0.77;;
1799;SDS011;919;48.274;12.292;2023-10-31T15:17:59;0.50;;;0.50;;
1799;SDS011;919;48.274;12.292;2023-10-31T15:20:26;0.93;;;0.70;;
1799;SDS011;919;48.274;12.292;2023-10-31T15:22:53;0.80;;;0.80;;
1799;SDS011;919;48.274;12.292;2023-10-31T15:25:19;0.70;;;0.70;;